New Orleans, Louisiana
Traffic Map
Current Weather Conditions
New Orleans, Louisiana
Clear
Clear
82°
Feels Like: 89°
Wind Chill: 82° Ceiling: Unl
Heat Index: 89° Visibility: 10mi
Dew Point: 76° Wind: 7mph
Humidity: 82% Direction: 240° (WSW)
Pressure: 30.02in Gusts: 0mph
Raw Report DataKNEW 301053Z AUTO 24006KT 10SM CLR 28/24 A3002 RMK AO2 SLP158 T02780244
Traffic Incident Summary
Active as of:
Severity:
Category:
InformationThere was an issue retrieving the traffic information for this location. Please try a different location or try again shortly.
Advertisements
Track Severe Weather on mobile